sensor_id;sensor_type;location;lat;lon;timestamp;P1;durP1;ratioP1;P2;durP2;ratioP2
59659;SDS011;45534;52.690;6.268;2023-04-06T00:01:54;30.45;;;8.25;;
59659;SDS011;45534;52.690;6.268;2023-04-06T00:04:20;8.88;;;5.72;;
59659;SDS011;45534;52.690;6.268;2023-04-06T00:06:46;11.82;;;7.57;;
59659;SDS011;45534;52.690;6.268;2023-04-06T00:09:12;9.35;;;6.18;;
59659;SDS011;45534;52.690;6.268;2023-04-06T00:11:37;9.70;;;5.28;;
59659;SDS011;45534;52.690;6.268;2023-04-06T00:14:03;21.13;;;5.05;;
59659;SDS011;45534;52.690;6.268;2023-04-06T00:16:29;7.15;;;5.00;;
59659;SDS011;45534;52.690;6.268;2023-04-06T00:18:55;7.20;;;5.32;;
59659;SDS011;45534;52.690;6.268;2023-04-06T00:21:20;17.83;;;6.25;;
59659;SDS011;45534;52.690;6.268;2023-04-06T00:23:46;6.40;;;4.70;;
59659;SDS011;45534;52.690;6.268;2023-04-06T00:26:12;8.85;;;5.38;;
59659;SDS011;45534;52.690;6.268;2023-04-06T00:28:37;8.98;;;5.05;;
59659;SDS011;45534;52.690;6.268;2023-04-06T00:31:03;9.80;;;6.07;;
59659;SDS011;45534;52.690;6.268;2023-04-06T00:33:29;8.30;;;5.80;;
59659;SDS011;45534;52.690;6.268;2023-04-06T00:35:55;8.77;;;5.55;;
59659;SDS011;45534;52.690;6.268;2023-04-06T00:38:21;6.57;;;4.13;;
59659;SDS011;45534;52.690;6.268;2023-04-06T00:40:47;9.15;;;5.50;;
59659;SDS011;45534;52.690;6.268;2023-04-06T00:43:13;10.10;;;6.15;;
59659;SDS011;45534;52.690;6.268;2023-04-06T00:45:39;7.75;;;5.18;;
59659;SDS011;45534;52.690;6.268;2023-04-06T00:48:06;10.60;;;5.95;;
59659;SDS011;45534;52.690;6.268;2023-04-06T00:50:33;7.85;;;4.55;;
59659;SDS011;45534;52.690;6.268;2023-04-06T00:52:59;13.10;;;6.85;;
59659;SDS011;45534;52.690;6.268;2023-04-06T00:55:28;6.85;;;5.65;;
59659;SDS011;45534;52.690;6.268;2023-04-06T00:57:54;9.30;;;6.68;;
59659;SDS011;45534;52.690;6.268;2023-04-06T01:00:23;10.20;;;5.80;;
59659;SDS011;45534;52.690;6.268;2023-04-06T01:02:49;12.85;;;7.10;;
59659;SDS011;45534;52.690;6.268;2023-04-06T01:05:15;16.33;;;6.68;;
59659;SDS011;45534;52.690;6.268;2023-04-06T01:07:41;6.20;;;5.28;;
59659;SDS011;45534;52.690;6.268;2023-04-06T01:10:07;9.20;;;6.05;;
59659;SDS011;45534;52.690;6.268;2023-04-06T01:12:33;9.52;;;6.25;;
59659;SDS011;45534;52.690;6.268;2023-04-06T01:14:59;9.80;;;6.45;;
59659;SDS011;45534;52.690;6.268;2023-04-06T01:17:25;16.02;;;6.28;;
59659;SDS011;45534;52.690;6.268;2023-04-06T01:19:50;7.57;;;5.95;;
59659;SDS011;45534;52.690;6.268;2023-04-06T01:22:19;14.07;;;7.55;;
59659;SDS011;45534;52.690;6.268;2023-04-06T01:24:45;9.27;;;4.95;;
59659;SDS011;45534;52.690;6.268;2023-04-06T01:27:11;6.18;;;5.25;;
59659;SDS011;45534;52.690;6.268;2023-04-06T01:29:38;9.07;;;5.95;;
59659;SDS011;45534;52.690;6.268;2023-04-06T01:32:06;11.40;;;6.60;;
59659;SDS011;45534;52.690;6.268;2023-04-06T01:34:33;7.95;;;6.18;;
59659;SDS011;45534;52.690;6.268;2023-04-06T01:36:58;6.43;;;4.50;;
59659;SDS011;45534;52.690;6.268;2023-04-06T01:39:25;12.77;;;5.55;;
59659;SDS011;45534;52.690;6.268;2023-04-06T01:41:51;10.40;;;5.95;;
59659;SDS011;45534;52.690;6.268;2023-04-06T01:44:17;23.33;;;8.45;;
59659;SDS011;45534;52.690;6.268;2023-04-06T01:46:46;11.27;;;6.93;;
59659;SDS011;45534;52.690;6.268;2023-04-06T01:49:12;8.55;;;5.95;;
59659;SDS011;45534;52.690;6.268;2023-04-06T01:51:38;9.18;;;5.25;;
59659;SDS011;45534;52.690;6.268;2023-04-06T01:54:04;10.18;;;6.32;;
59659;SDS011;45534;52.690;6.268;2023-04-06T01:56:30;16.40;;;6.93;;
59659;SDS011;45534;52.690;6.268;2023-04-06T01:58:55;9.48;;;5.97;;
59659;SDS011;45534;52.690;6.268;2023-04-06T02:01:21;9.23;;;5.85;;
59659;SDS011;45534;52.690;6.268;2023-04-06T02:03:47;9.43;;;4.97;;
59659;SDS011;45534;52.690;6.268;2023-04-06T02:06:13;12.00;;;5.05;;
59659;SDS011;45534;52.690;6.268;2023-04-06T02:08:38;13.05;;;5.55;;
59659;SDS011;45534;52.690;6.268;2023-04-06T02:11:04;6.88;;;4.68;;
59659;SDS011;45534;52.690;6.268;2023-04-06T02:13:30;10.20;;;6.43;;
59659;SDS011;45534;52.690;6.268;2023-04-06T02:15:56;10.38;;;6.13;;
59659;SDS011;45534;52.690;6.268;2023-04-06T02:18:22;10.77;;;8.50;;
59659;SDS011;45534;52.690;6.268;2023-04-06T02:20:48;13.07;;;6.88;;
59659;SDS011;45534;52.690;6.268;2023-04-06T02:23:13;9.48;;;6.38;;
59659;SDS011;45534;52.690;6.268;2023-04-06T02:25:39;9.13;;;6.38;;
59659;SDS011;45534;52.690;6.268;2023-04-06T02:28:06;10.88;;;6.18;;
59659;SDS011;45534;52.690;6.268;2023-04-06T02:30:31;10.15;;;6.13;;
59659;SDS011;45534;52.690;6.268;2023-04-06T02:32:58;11.18;;;5.97;;
59659;SDS011;45534;52.690;6.268;2023-04-06T02:35:28;10.05;;;4.75;;
59659;SDS011;45534;52.690;6.268;2023-04-06T02:37:54;31.05;;;5.95;;
59659;SDS011;45534;52.690;6.268;2023-04-06T02:40:20;12.25;;;6.60;;
59659;SDS011;45534;52.690;6.268;2023-04-06T02:42:46;13.45;;;6.13;;
59659;SDS011;45534;52.690;6.268;2023-04-06T02:45:11;11.13;;;6.38;;
59659;SDS011;45534;52.690;6.268;2023-04-06T02:47:37;10.55;;;6.70;;
59659;SDS011;45534;52.690;6.268;2023-04-06T02:50:03;12.57;;;7.38;;
59659;SDS011;45534;52.690;6.268;2023-04-06T02:52:30;10.88;;;6.40;;
59659;SDS011;45534;52.690;6.268;2023-04-06T02:54:56;10.60;;;6.57;;
59659;SDS011;45534;52.690;6.268;2023-04-06T02:57:21;17.30;;;8.18;;
59659;SDS011;45534;52.690;6.268;2023-04-06T02:59:47;11.30;;;7.18;;
59659;SDS011;45534;52.690;6.268;2023-04-06T03:02:13;10.23;;;6.32;;
59659;SDS011;45534;52.690;6.268;2023-04-06T03:04:38;7.30;;;6.47;;
59659;SDS011;45534;52.690;6.268;2023-04-06T03:07:04;10.10;;;6.57;;
59659;SDS011;45534;52.690;6.268;2023-04-06T03:09:30;12.20;;;7.82;;
59659;SDS011;45534;52.690;6.268;2023-04-06T03:11:55;14.90;;;7.45;;
59659;SDS011;45534;52.690;6.268;2023-04-06T03:14:22;14.35;;;7.25;;
59659;SDS011;45534;52.690;6.268;2023-04-06T03:16:48;9.70;;;6.38;;
59659;SDS011;45534;52.690;6.268;2023-04-06T03:19:14;11.05;;;7.78;;
59659;SDS011;45534;52.690;6.268;2023-04-06T03:21:40;10.10;;;7.50;;
59659;SDS011;45534;52.690;6.268;2023-04-06T03:24:06;15.23;;;11.18;;
59659;SDS011;45534;52.690;6.268;2023-04-06T03:26:33;16.88;;;7.57;;
59659;SDS011;45534;52.690;6.268;2023-04-06T03:28:58;8.77;;;6.93;;
59659;SDS011;45534;52.690;6.268;2023-04-06T03:31:24;13.25;;;9.90;;
59659;SDS011;45534;52.690;6.268;2023-04-06T03:33:53;14.52;;;8.05;;
59659;SDS011;45534;52.690;6.268;2023-04-06T03:36:19;9.20;;;7.55;;
59659;SDS011;45534;52.690;6.268;2023-04-06T03:38:45;14.80;;;8.32;;
59659;SDS011;45534;52.690;6.268;2023-04-06T03:41:10;15.40;;;8.05;;
59659;SDS011;45534;52.690;6.268;2023-04-06T03:43:36;9.73;;;7.10;;
59659;SDS011;45534;52.690;6.268;2023-04-06T03:46:02;14.85;;;6.40;;
59659;SDS011;45534;52.690;6.268;2023-04-06T03:48:27;11.80;;;7.47;;
59659;SDS011;45534;52.690;6.268;2023-04-06T03:50:53;9.80;;;5.78;;
59659;SDS011;45534;52.690;6.268;2023-04-06T03:53:19;15.88;;;10.05;;
59659;SDS011;45534;52.690;6.268;2023-04-06T03:55:45;12.93;;;7.97;;
59659;SDS011;45534;52.690;6.268;2023-04-06T03:58:10;11.55;;;6.85;;
59659;SDS011;45534;52.690;6.268;2023-04-06T04:00:36;12.23;;;6.00;;
59659;SDS011;45534;52.690;6.268;2023-04-06T04:03:02;9.32;;;6.25;;
59659;SDS011;45534;52.690;6.268;2023-04-06T04:05:28;11.23;;;8.70;;
59659;SDS011;45534;52.690;6.268;2023-04-06T04:07:54;21.05;;;9.55;;
59659;SDS011;45534;52.690;6.268;2023-04-06T04:10:20;13.57;;;6.55;;
59659;SDS011;45534;52.690;6.268;2023-04-06T04:12:46;12.32;;;7.75;;
59659;SDS011;45534;52.690;6.268;2023-04-06T04:15:11;13.73;;;7.03;;
59659;SDS011;45534;52.690;6.268;2023-04-06T04:17:37;13.25;;;7.40;;
59659;SDS011;45534;52.690;6.268;2023-04-06T04:20:03;17.27;;;10.75;;
59659;SDS011;45534;52.690;6.268;2023-04-06T04:22:29;14.68;;;6.88;;
59659;SDS011;45534;52.690;6.268;2023-04-06T04:24:55;18.27;;;8.52;;
59659;SDS011;45534;52.690;6.268;2023-04-06T04:27:20;12.02;;;8.20;;
59659;SDS011;45534;52.690;6.268;2023-04-06T04:29:46;12.88;;;9.20;;
59659;SDS011;45534;52.690;6.268;2023-04-06T04:32:12;15.15;;;9.80;;
59659;SDS011;45534;52.690;6.268;2023-04-06T04:34:38;9.48;;;7.05;;
59659;SDS011;45534;52.690;6.268;2023-04-06T04:37:06;11.32;;;8.43;;
59659;SDS011;45534;52.690;6.268;2023-04-06T04:39:32;15.50;;;9.88;;
59659;SDS011;45534;52.690;6.268;2023-04-06T04:41:58;11.45;;;7.75;;
59659;SDS011;45534;52.690;6.268;2023-04-06T04:44:23;26.58;;;9.52;;
59659;SDS011;45534;52.690;6.268;2023-04-06T04:46:49;9.10;;;6.30;;
59659;SDS011;45534;52.690;6.268;2023-04-06T04:49:15;17.90;;;8.75;;
59659;SDS011;45534;52.690;6.268;2023-04-06T04:51:41;14.13;;;8.13;;
59659;SDS011;45534;52.690;6.268;2023-04-06T04:54:06;14.05;;;9.40;;
59659;SDS011;45534;52.690;6.268;2023-04-06T04:56:32;11.48;;;7.13;;
59659;SDS011;45534;52.690;6.268;2023-04-06T04:58:58;10.18;;;5.97;;
59659;SDS011;45534;52.690;6.268;2023-04-06T05:01:23;15.90;;;6.45;;
59659;SDS011;45534;52.690;6.268;2023-04-06T05:03:50;11.77;;;6.65;;
59659;SDS011;45534;52.690;6.268;2023-04-06T05:06:15;8.90;;;6.90;;
59659;SDS011;45534;52.690;6.268;2023-04-06T05:08:41;13.82;;;7.97;;
59659;SDS011;45534;52.690;6.268;2023-04-06T05:11:07;14.77;;;9.00;;
59659;SDS011;45534;52.690;6.268;2023-04-06T05:13:34;11.23;;;6.25;;
59659;SDS011;45534;52.690;6.268;2023-04-06T05:15:59;10.90;;;6.55;;
59659;SDS011;45534;52.690;6.268;2023-04-06T05:18:25;9.20;;;6.97;;
59659;SDS011;45534;52.690;6.268;2023-04-06T05:20:51;11.77;;;7.03;;
59659;SDS011;45534;52.690;6.268;2023-04-06T05:23:17;12.52;;;8.80;;
59659;SDS011;45534;52.690;6.268;2023-04-06T05:25:43;13.50;;;7.90;;
59659;SDS011;45534;52.690;6.268;2023-04-06T05:28:08;10.95;;;7.88;;
59659;SDS011;45534;52.690;6.268;2023-04-06T05:30:34;13.38;;;7.72;;
59659;SDS011;45534;52.690;6.268;2023-04-06T05:33:01;12.27;;;7.53;;
59659;SDS011;45534;52.690;6.268;2023-04-06T05:35:27;11.82;;;8.98;;
59659;SDS011;45534;52.690;6.268;2023-04-06T05:37:52;14.00;;;8.43;;
59659;SDS011;45534;52.690;6.268;2023-04-06T05:40:18;12.60;;;8.60;;
59659;SDS011;45534;52.690;6.268;2023-04-06T05:42:44;37.08;;;8.70;;
59659;SDS011;45534;52.690;6.268;2023-04-06T05:45:10;13.02;;;8.02;;
59659;SDS011;45534;52.690;6.268;2023-04-06T05:47:41;13.48;;;10.30;;
59659;SDS011;45534;52.690;6.268;2023-04-06T05:50:09;14.38;;;7.72;;
59659;SDS011;45534;52.690;6.268;2023-04-06T05:52:35;16.38;;;9.13;;
59659;SDS011;45534;52.690;6.268;2023-04-06T05:55:01;12.55;;;10.25;;
59659;SDS011;45534;52.690;6.268;2023-04-06T05:57:28;17.80;;;10.50;;
59659;SDS011;45534;52.690;6.268;2023-04-06T05:59:53;18.10;;;7.78;;
59659;SDS011;45534;52.690;6.268;2023-04-06T06:02:20;12.38;;;8.27;;
59659;SDS011;45534;52.690;6.268;2023-04-06T06:04:46;9.85;;;7.88;;
59659;SDS011;45534;52.690;6.268;2023-04-06T06:07:14;13.55;;;8.93;;
59659;SDS011;45534;52.690;6.268;2023-04-06T06:09:40;15.55;;;8.43;;
59659;SDS011;45534;52.690;6.268;2023-04-06T06:12:06;17.02;;;9.20;;
59659;SDS011;45534;52.690;6.268;2023-04-06T06:14:32;12.65;;;8.18;;
59659;SDS011;45534;52.690;6.268;2023-04-06T06:16:58;14.93;;;8.57;;
59659;SDS011;45534;52.690;6.268;2023-04-06T06:19:23;13.07;;;8.60;;
59659;SDS011;45534;52.690;6.268;2023-04-06T06:21:50;13.50;;;7.35;;
59659;SDS011;45534;52.690;6.268;2023-04-06T06:24:16;15.30;;;8.93;;
59659;SDS011;45534;52.690;6.268;2023-04-06T06:26:41;11.93;;;8.27;;
59659;SDS011;45534;52.690;6.268;2023-04-06T06:29:08;10.70;;;6.78;;
59659;SDS011;45534;52.690;6.268;2023-04-06T06:31:34;16.40;;;9.10;;
59659;SDS011;45534;52.690;6.268;2023-04-06T06:34:00;16.58;;;8.93;;
59659;SDS011;45534;52.690;6.268;2023-04-06T06:36:27;11.63;;;8.35;;
59659;SDS011;45534;52.690;6.268;2023-04-06T06:38:52;12.75;;;8.38;;
59659;SDS011;45534;52.690;6.268;2023-04-06T06:41:18;14.90;;;8.18;;
59659;SDS011;45534;52.690;6.268;2023-04-06T06:43:44;17.50;;;11.70;;
59659;SDS011;45534;52.690;6.268;2023-04-06T06:46:09;16.58;;;12.73;;
59659;SDS011;45534;52.690;6.268;2023-04-06T06:48:35;11.20;;;7.72;;
59659;SDS011;45534;52.690;6.268;2023-04-06T06:51:01;14.80;;;9.38;;
59659;SDS011;45534;52.690;6.268;2023-04-06T06:53:27;17.05;;;9.82;;
59659;SDS011;45534;52.690;6.268;2023-04-06T06:55:52;12.52;;;7.45;;
59659;SDS011;45534;52.690;6.268;2023-04-06T06:58:18;15.43;;;9.35;;
59659;SDS011;45534;52.690;6.268;2023-04-06T07:00:45;13.25;;;9.02;;
59659;SDS011;45534;52.690;6.268;2023-04-06T07:03:11;16.13;;;10.48;;
59659;SDS011;45534;52.690;6.268;2023-04-06T07:05:36;13.90;;;9.63;;
59659;SDS011;45534;52.690;6.268;2023-04-06T07:08:02;12.55;;;9.02;;
59659;SDS011;45534;52.690;6.268;2023-04-06T07:10:28;13.25;;;9.02;;
59659;SDS011;45534;52.690;6.268;2023-04-06T07:12:54;15.18;;;8.85;;
59659;SDS011;45534;52.690;6.268;2023-04-06T07:15:20;19.90;;;10.10;;
59659;SDS011;45534;52.690;6.268;2023-04-06T07:17:46;13.13;;;7.13;;
59659;SDS011;45534;52.690;6.268;2023-04-06T07:20:12;18.15;;;9.68;;
59659;SDS011;45534;52.690;6.268;2023-04-06T07:22:38;13.43;;;8.98;;
59659;SDS011;45534;52.690;6.268;2023-04-06T07:25:05;12.70;;;9.02;;
59659;SDS011;45534;52.690;6.268;2023-04-06T07:27:31;14.35;;;8.90;;
59659;SDS011;45534;52.690;6.268;2023-04-06T07:29:57;15.30;;;10.02;;
59659;SDS011;45534;52.690;6.268;2023-04-06T07:32:22;15.02;;;10.40;;
59659;SDS011;45534;52.690;6.268;2023-04-06T07:34:48;11.05;;;7.82;;
59659;SDS011;45534;52.690;6.268;2023-04-06T07:37:14;11.27;;;7.88;;
59659;SDS011;45534;52.690;6.268;2023-04-06T07:39:40;16.23;;;11.25;;
59659;SDS011;45534;52.690;6.268;2023-04-06T07:42:05;15.88;;;11.10;;
59659;SDS011;45534;52.690;6.268;2023-04-06T07:44:31;13.45;;;9.57;;
59659;SDS011;45534;52.690;6.268;2023-04-06T07:46:57;18.00;;;10.95;;
59659;SDS011;45534;52.690;6.268;2023-04-06T07:49:23;13.75;;;8.52;;
59659;SDS011;45534;52.690;6.268;2023-04-06T07:51:48;15.02;;;9.77;;
59659;SDS011;45534;52.690;6.268;2023-04-06T07:54:14;15.18;;;9.10;;
59659;SDS011;45534;52.690;6.268;2023-04-06T07:56:40;15.40;;;9.57;;
59659;SDS011;45534;52.690;6.268;2023-04-06T07:59:06;13.27;;;9.90;;
59659;SDS011;45534;52.690;6.268;2023-04-06T08:01:31;11.43;;;8.15;;
59659;SDS011;45534;52.690;6.268;2023-04-06T08:03:57;18.60;;;10.82;;
59659;SDS011;45534;52.690;6.268;2023-04-06T08:06:24;15.63;;;8.73;;
59659;SDS011;45534;52.690;6.268;2023-04-06T08:08:50;15.60;;;8.93;;
59659;SDS011;45534;52.690;6.268;2023-04-06T08:11:15;17.05;;;10.00;;
59659;SDS011;45534;52.690;6.268;2023-04-06T08:13:41;16.90;;;10.68;;
59659;SDS011;45534;52.690;6.268;2023-04-06T08:16:07;20.35;;;10.07;;
59659;SDS011;45534;52.690;6.268;2023-04-06T08:18:33;12.63;;;8.75;;
59659;SDS011;45534;52.690;6.268;2023-04-06T08:20:58;19.27;;;12.63;;
59659;SDS011;45534;52.690;6.268;2023-04-06T08:23:24;20.05;;;10.23;;
59659;SDS011;45534;52.690;6.268;2023-04-06T08:25:50;15.43;;;10.57;;
59659;SDS011;45534;52.690;6.268;2023-04-06T08:28:19;14.27;;;9.07;;
59659;SDS011;45534;52.690;6.268;2023-04-06T08:30:45;17.10;;;12.20;;
59659;SDS011;45534;52.690;6.268;2023-04-06T08:33:11;21.60;;;12.52;;
59659;SDS011;45534;52.690;6.268;2023-04-06T08:35:37;17.88;;;12.18;;
59659;SDS011;45534;52.690;6.268;2023-04-06T08:38:02;18.80;;;10.68;;
59659;SDS011;45534;52.690;6.268;2023-04-06T08:40:28;17.73;;;12.00;;
59659;SDS011;45534;52.690;6.268;2023-04-06T08:42:55;19.05;;;11.70;;
59659;SDS011;45534;52.690;6.268;2023-04-06T08:45:21;16.98;;;11.00;;
59659;SDS011;45534;52.690;6.268;2023-04-06T08:47:49;17.13;;;11.45;;
59659;SDS011;45534;52.690;6.268;2023-04-06T08:50:16;16.30;;;11.35;;
59659;SDS011;45534;52.690;6.268;2023-04-06T08:52:43;22.92;;;12.20;;
59659;SDS011;45534;52.690;6.268;2023-04-06T08:55:12;11.52;;;8.18;;
59659;SDS011;45534;52.690;6.268;2023-04-06T08:57:37;13.30;;;10.38;;
59659;SDS011;45534;52.690;6.268;2023-04-06T09:00:04;18.80;;;11.88;;
59659;SDS011;45534;52.690;6.268;2023-04-06T09:02:31;18.55;;;11.73;;
59659;SDS011;45534;52.690;6.268;2023-04-06T09:04:57;20.70;;;12.80;;
59659;SDS011;45534;52.690;6.268;2023-04-06T09:07:24;17.42;;;10.55;;
59659;SDS011;45534;52.690;6.268;2023-04-06T09:09:49;18.88;;;11.82;;
59659;SDS011;45534;52.690;6.268;2023-04-06T09:12:26;25.77;;;13.88;;
59659;SDS011;45534;52.690;6.268;2023-04-06T09:14:53;26.17;;;9.75;;
59659;SDS011;45534;52.690;6.268;2023-04-06T09:17:21;16.67;;;10.20;;
59659;SDS011;45534;52.690;6.268;2023-04-06T09:19:48;13.88;;;8.93;;
59659;SDS011;45534;52.690;6.268;2023-04-06T09:22:14;20.85;;;14.93;;
59659;SDS011;45534;52.690;6.268;2023-04-06T09:24:44;16.48;;;10.45;;
59659;SDS011;45534;52.690;6.268;2023-04-06T09:27:11;26.35;;;13.82;;
59659;SDS011;45534;52.690;6.268;2023-04-06T09:29:37;21.33;;;12.10;;
59659;SDS011;45534;52.690;6.268;2023-04-06T09:32:06;18.00;;;11.63;;
59659;SDS011;45534;52.690;6.268;2023-04-06T09:34:36;20.83;;;14.48;;
59659;SDS011;45534;52.690;6.268;2023-04-06T09:37:12;21.60;;;11.27;;
59659;SDS011;45534;52.690;6.268;2023-04-06T09:39:43;21.65;;;15.13;;
59659;SDS011;45534;52.690;6.268;2023-04-06T09:42:09;20.08;;;13.52;;
59659;SDS011;45534;52.690;6.268;2023-04-06T09:44:36;20.00;;;15.50;;
59659;SDS011;45534;52.690;6.268;2023-04-06T09:47:03;18.90;;;13.27;;
59659;SDS011;45534;52.690;6.268;2023-04-06T09:49:33;24.95;;;15.68;;
59659;SDS011;45534;52.690;6.268;2023-04-06T09:52:02;20.42;;;12.85;;
59659;SDS011;45534;52.690;6.268;2023-04-06T09:54:29;22.25;;;13.88;;
59659;SDS011;45534;52.690;6.268;2023-04-06T10:02:24;20.95;;;13.05;;
59659;SDS011;45534;52.690;6.268;2023-04-06T10:05:16;20.92;;;11.88;;
59659;SDS011;45534;52.690;6.268;2023-04-06T10:07:42;21.63;;;14.52;;
59659;SDS011;45534;52.690;6.268;2023-04-06T10:10:09;19.88;;;13.52;;
59659;SDS011;45534;52.690;6.268;2023-04-06T10:12:37;25.48;;;16.67;;
59659;SDS011;45534;52.690;6.268;2023-04-06T10:15:05;22.00;;;14.07;;
59659;SDS011;45534;52.690;6.268;2023-04-06T10:17:31;24.40;;;14.73;;
59659;SDS011;45534;52.690;6.268;2023-04-06T10:20:02;24.85;;;13.13;;
59659;SDS011;45534;52.690;6.268;2023-04-06T10:23:19;26.13;;;15.63;;
59659;SDS011;45534;52.690;6.268;2023-04-06T10:25:30;29.27;;;13.93;;
59659;SDS011;45534;52.690;6.268;2023-04-06T10:28:07;25.83;;;13.95;;
59659;SDS011;45534;52.690;6.268;2023-04-06T10:30:34;17.95;;;11.77;;
59659;SDS011;45534;52.690;6.268;2023-04-06T10:33:12;22.75;;;14.90;;
59659;SDS011;45534;52.690;6.268;2023-04-06T10:38:08;27.60;;;15.93;;
59659;SDS011;45534;52.690;6.268;2023-04-06T10:40:38;19.50;;;13.63;;
59659;SDS011;45534;52.690;6.268;2023-04-06T10:43:11;20.25;;;13.18;;
59659;SDS011;45534;52.690;6.268;2023-04-06T10:45:39;19.05;;;12.50;;
59659;SDS011;45534;52.690;6.268;2023-04-06T10:48:18;31.00;;;15.15;;
59659;SDS011;45534;52.690;6.268;2023-04-06T10:50:47;23.73;;;14.90;;
59659;SDS011;45534;52.690;6.268;2023-04-06T10:53:21;27.92;;;16.27;;
59659;SDS011;45534;52.690;6.268;2023-04-06T10:55:47;24.42;;;14.90;;
59659;SDS011;45534;52.690;6.268;2023-04-06T10:58:16;26.15;;;15.32;;
59659;SDS011;45534;52.690;6.268;2023-04-06T11:00:48;24.27;;;15.23;;
59659;SDS011;45534;52.690;6.268;2023-04-06T11:03:14;25.67;;;15.57;;
59659;SDS011;45534;52.690;6.268;2023-04-06T11:05:47;28.08;;;17.08;;
59659;SDS011;45534;52.690;6.268;2023-04-06T11:11:11;27.80;;;15.25;;
59659;SDS011;45534;52.690;6.268;2023-04-06T11:13:48;22.02;;;12.68;;
59659;SDS011;45534;52.690;6.268;2023-04-06T11:16:14;27.40;;;15.20;;
59659;SDS011;45534;52.690;6.268;2023-04-06T11:18:59;23.80;;;16.05;;
59659;SDS011;45534;52.690;6.268;2023-04-06T11:21:47;33.58;;;13.75;;
59659;SDS011;45534;52.690;6.268;2023-04-06T11:24:17;22.92;;;15.07;;
59659;SDS011;45534;52.690;6.268;2023-04-06T11:27:05;22.40;;;14.07;;
59659;SDS011;45534;52.690;6.268;2023-04-06T11:29:31;26.13;;;15.43;;
59659;SDS011;45534;52.690;6.268;2023-04-06T11:34:28;20.20;;;13.38;;
59659;SDS011;45534;52.690;6.268;2023-04-06T11:36:56;22.63;;;15.60;;
59659;SDS011;45534;52.690;6.268;2023-04-06T11:39:25;21.75;;;14.65;;
59659;SDS011;45534;52.690;6.268;2023-04-06T11:41:53;22.05;;;16.00;;
59659;SDS011;45534;52.690;6.268;2023-04-06T11:44:37;14.50;;;10.68;;
59659;SDS011;45534;52.690;6.268;2023-04-06T11:47:07;21.02;;;16.55;;
59659;SDS011;45534;52.690;6.268;2023-04-06T11:49:41;22.92;;;13.77;;
59659;SDS011;45534;52.690;6.268;2023-04-06T11:52:25;23.90;;;14.98;;
59659;SDS011;45534;52.690;6.268;2023-04-06T11:54:53;22.40;;;15.75;;
59659;SDS011;45534;52.690;6.268;2023-04-06T11:57:20;20.90;;;12.38;;
59659;SDS011;45534;52.690;6.268;2023-04-06T11:59:50;23.10;;;13.50;;
59659;SDS011;45534;52.690;6.268;2023-04-06T12:02:16;23.42;;;13.88;;
59659;SDS011;45534;52.690;6.268;2023-04-06T12:04:43;26.92;;;15.80;;
59659;SDS011;45534;52.690;6.268;2023-04-06T12:07:09;22.85;;;11.30;;
59659;SDS011;45534;52.690;6.268;2023-04-06T12:09:35;20.83;;;15.30;;
59659;SDS011;45534;52.690;6.268;2023-04-06T12:12:02;14.30;;;11.82;;
59659;SDS011;45534;52.690;6.268;2023-04-06T12:14:28;27.83;;;15.65;;
59659;SDS011;45534;52.690;6.268;2023-04-06T12:16:55;20.35;;;11.48;;
59659;SDS011;45534;52.690;6.268;2023-04-06T12:19:24;22.20;;;12.68;;
59659;SDS011;45534;52.690;6.268;2023-04-06T12:21:53;22.20;;;14.02;;
59659;SDS011;45534;52.690;6.268;2023-04-06T12:24:19;25.17;;;14.05;;
59659;SDS011;45534;52.690;6.268;2023-04-06T12:26:45;21.73;;;10.60;;
59659;SDS011;45534;52.690;6.268;2023-04-06T12:29:11;15.35;;;10.70;;
59659;SDS011;45534;52.690;6.268;2023-04-06T12:31:38;17.85;;;8.77;;
59659;SDS011;45534;52.690;6.268;2023-04-06T12:34:06;19.83;;;13.30;;
59659;SDS011;45534;52.690;6.268;2023-04-06T12:36:32;17.42;;;9.23;;
59659;SDS011;45534;52.690;6.268;2023-04-06T12:38:58;17.73;;;10.75;;
59659;SDS011;45534;52.690;6.268;2023-04-06T12:41:28;19.38;;;12.45;;
59659;SDS011;45534;52.690;6.268;2023-04-06T12:43:54;25.48;;;8.23;;
59659;SDS011;45534;52.690;6.268;2023-04-06T12:46:20;19.52;;;7.82;;
59659;SDS011;45534;52.690;6.268;2023-04-06T12:48:47;16.25;;;10.77;;
59659;SDS011;45534;52.690;6.268;2023-04-06T12:51:13;12.55;;;6.93;;
59659;SDS011;45534;52.690;6.268;2023-04-06T12:53:39;15.73;;;10.10;;
59659;SDS011;45534;52.690;6.268;2023-04-06T12:56:12;9.73;;;6.60;;
59659;SDS011;45534;52.690;6.268;2023-04-06T12:58:39;13.02;;;7.22;;
59659;SDS011;45534;52.690;6.268;2023-04-06T13:01:06;10.43;;;7.22;;
59659;SDS011;45534;52.690;6.268;2023-04-06T13:03:33;18.33;;;8.73;;
59659;SDS011;45534;52.690;6.268;2023-04-06T13:05:59;10.57;;;6.35;;
59659;SDS011;45534;52.690;6.268;2023-04-06T13:08:25;10.65;;;5.72;;
59659;SDS011;45534;52.690;6.268;2023-04-06T13:10:52;17.10;;;10.32;;
59659;SDS011;45534;52.690;6.268;2023-04-06T13:13:25;12.25;;;7.05;;
59659;SDS011;45534;52.690;6.268;2023-04-06T13:15:52;14.65;;;10.07;;
59659;SDS011;45534;52.690;6.268;2023-04-06T13:18:19;16.38;;;7.25;;
59659;SDS011;45534;52.690;6.268;2023-04-06T13:20:46;11.85;;;8.35;;
59659;SDS011;45534;52.690;6.268;2023-04-06T13:23:12;13.25;;;8.27;;
59659;SDS011;45534;52.690;6.268;2023-04-06T13:25:38;14.85;;;9.68;;
59659;SDS011;45534;52.690;6.268;2023-04-06T13:28:04;15.13;;;9.30;;
59659;SDS011;45534;52.690;6.268;2023-04-06T13:30:30;14.90;;;9.60;;
59659;SDS011;45534;52.690;6.268;2023-04-06T13:32:55;14.50;;;9.45;;
59659;SDS011;45534;52.690;6.268;2023-04-06T13:35:21;17.08;;;11.93;;
59659;SDS011;45534;52.690;6.268;2023-04-06T13:37:47;18.90;;;12.43;;
59659;SDS011;45534;52.690;6.268;2023-04-06T13:40:13;15.07;;;10.43;;
59659;SDS011;45534;52.690;6.268;2023-04-06T13:42:39;15.55;;;8.80;;
59659;SDS011;45534;52.690;6.268;2023-04-06T13:45:06;24.83;;;11.18;;
59659;SDS011;45534;52.690;6.268;2023-04-06T13:47:32;19.80;;;12.25;;
59659;SDS011;45534;52.690;6.268;2023-04-06T13:49:58;14.32;;;8.07;;
59659;SDS011;45534;52.690;6.268;2023-04-06T13:52:23;13.52;;;8.65;;
59659;SDS011;45534;52.690;6.268;2023-04-06T13:54:49;16.92;;;9.88;;
59659;SDS011;45534;52.690;6.268;2023-04-06T13:57:15;14.88;;;9.43;;
59659;SDS011;45534;52.690;6.268;2023-04-06T13:59:41;21.33;;;12.77;;
59659;SDS011;45534;52.690;6.268;2023-04-06T14:02:08;13.55;;;7.30;;
59659;SDS011;45534;52.690;6.268;2023-04-06T14:04:35;18.73;;;10.90;;
59659;SDS011;45534;52.690;6.268;2023-04-06T14:07:01;21.35;;;12.63;;
59659;SDS011;45534;52.690;6.268;2023-04-06T14:09:28;18.70;;;11.27;;
59659;SDS011;45534;52.690;6.268;2023-04-06T14:11:55;21.45;;;13.63;;
59659;SDS011;45534;52.690;6.268;2023-04-06T14:14:21;19.02;;;16.10;;
59659;SDS011;45534;52.690;6.268;2023-04-06T14:16:48;16.35;;;11.65;;
59659;SDS011;45534;52.690;6.268;2023-04-06T14:19:14;17.13;;;10.20;;
59659;SDS011;45534;52.690;6.268;2023-04-06T14:21:42;17.90;;;12.63;;
59659;SDS011;45534;52.690;6.268;2023-04-06T14:24:09;15.73;;;10.15;;
59659;SDS011;45534;52.690;6.268;2023-04-06T14:26:35;18.92;;;10.93;;
59659;SDS011;45534;52.690;6.268;2023-04-06T14:29:05;21.25;;;13.55;;
59659;SDS011;45534;52.690;6.268;2023-04-06T14:31:31;21.25;;;11.20;;
59659;SDS011;45534;52.690;6.268;2023-04-06T14:33:57;21.25;;;14.18;;
59659;SDS011;45534;52.690;6.268;2023-04-06T14:36:23;20.90;;;16.05;;
59659;SDS011;45534;52.690;6.268;2023-04-06T14:38:51;17.08;;;11.30;;
59659;SDS011;45534;52.690;6.268;2023-04-06T14:41:23;18.75;;;12.40;;
59659;SDS011;45534;52.690;6.268;2023-04-06T14:43:52;18.13;;;13.48;;